createdAt,value
2019-04-02T00:02:20.217Z,69.36
2019-04-02T00:04:46.342Z,69.29
2019-04-02T00:07:12.402Z,69.58
2019-04-02T00:09:38.222Z,69.87
2019-04-02T00:12:04.028Z,69.87
2019-04-02T00:14:30.149Z,70.50
2019-04-02T00:16:56.252Z,70.77
2019-04-02T00:19:22.088Z,69.80
2019-04-02T00:21:47.895Z,69.72
2019-04-02T00:24:13.965Z,70.01
2019-04-02T00:26:40.041Z,70.25
2019-04-02T00:29:05.847Z,70.39
2019-04-02T00:31:31.921Z,70.28
2019-04-02T00:33:58.023Z,70.52
2019-04-02T00:36:23.841Z,70.58
2019-04-02T00:38:52.419Z,71.00
2019-04-02T00:41:18.241Z,71.09
2019-04-02T00:43:46.796Z,71.32
2019-04-02T00:46:12.586Z,71.63
2019-04-02T00:48:41.429Z,71.73
2019-04-02T00:51:08.236Z,71.98
2019-04-02T00:53:38.029Z,71.88
2019-04-02T00:56:03.981Z,71.83
2019-04-02T00:58:33.090Z,72.07
2019-04-02T01:00:59.002Z,72.08
2019-04-02T01:03:25.120Z,72.18
2019-04-02T01:05:50.926Z,72.60
2019-04-02T01:08:17.018Z,72.34
2019-04-02T01:10:43.303Z,72.71
2019-04-02T01:13:09.160Z,72.43
2019-04-02T01:15:37.847Z,72.13
2019-04-02T01:18:03.952Z,72.08
2019-04-02T01:20:32.788Z,71.98
2019-04-02T01:22:58.616Z,71.72
2019-04-02T01:25:27.852Z,72.34
2019-04-02T01:27:53.755Z,72.25
2019-04-02T01:30:22.584Z,71.95
2019-04-02T01:32:48.422Z,71.67
2019-04-02T01:35:17.043Z,71.84
2019-04-02T01:37:42.854Z,72.06
2019-04-02T01:40:08.949Z,72.10
2019-04-02T01:42:34.775Z,71.94
2019-04-02T01:45:00.933Z,72.07
2019-04-02T01:47:29.514Z,72.11
2019-04-02T01:49:55.310Z,72.22
2019-04-02T01:52:24.017Z,72.42
2019-04-02T01:54:50.098Z,72.69
2019-04-02T01:57:17.092Z,72.78
2019-04-02T01:59:42.898Z,73.37
2019-04-02T02:02:13.168Z,73.77
2019-04-02T02:04:38.985Z,74.34
2019-04-02T02:07:07.551Z,74.35
2019-04-02T02:09:34.151Z,74.71
2019-04-02T02:12:04.045Z,74.72
2019-04-02T02:14:29.834Z,74.43
2019-04-02T02:16:55.650Z,74.55
2019-04-02T02:19:21.740Z,74.30
2019-04-02T02:21:47.571Z,74.34
2019-04-02T02:24:13.473Z,74.40
2019-04-02T02:26:39.312Z,74.89
2019-04-02T02:29:08.020Z,75.31
2019-04-02T02:31:35.973Z,75.69
2019-04-02T02:34:06.932Z,75.94
2019-04-02T02:36:32.901Z,76.23
2019-04-02T02:38:58.722Z,76.50
2019-04-02T02:41:59.209Z,75.93
2019-04-02T02:44:25.106Z,76.56
2019-04-02T02:46:50.905Z,76.61
2019-04-02T02:49:17.683Z,76.55
2019-04-02T02:51:44.102Z,76.28
2019-04-02T02:54:09.877Z,76.59
2019-04-02T02:56:35.685Z,76.62
2019-04-02T02:59:01.502Z,76.21
2019-04-02T03:01:27.806Z,75.75
2019-04-02T03:03:53.969Z,75.76
2019-04-02T03:06:20.076Z,76.39
2019-04-02T03:08:45.862Z,77.39
2019-04-02T03:11:12.029Z,77.09
2019-04-02T03:13:38.099Z,76.17
2019-04-02T03:16:03.987Z,76.14
2019-04-02T03:18:29.780Z,76.22
2019-04-02T03:20:55.952Z,76.39
2019-04-02T03:23:22.046Z,74.89
2019-04-02T03:25:47.836Z,74.71
2019-04-02T03:28:13.653Z,74.34
2019-04-02T03:30:39.836Z,75.47
2019-04-02T03:33:05.946Z,75.97
2019-04-02T03:35:33.486Z,76.32
2019-04-02T03:37:59.504Z,76.15
2019-04-02T03:40:25.565Z,76.37
2019-04-02T03:42:51.668Z,77.12
2019-04-02T03:45:17.460Z,78.07
2019-04-02T03:47:44.324Z,77.82
2019-04-02T03:50:10.866Z,76.94
2019-04-02T03:52:36.666Z,75.88
2019-04-02T03:55:04.186Z,75.62
2019-04-02T03:57:30.375Z,74.91
2019-04-02T03:59:56.212Z,74.98
2019-04-02T04:04:53.684Z,76.40
2019-04-02T04:07:21.855Z,77.49
2019-04-02T04:09:48.209Z,77.76
2019-04-02T04:12:14.181Z,77.96
2019-04-02T04:14:40.278Z,77.87
2019-04-02T04:17:06.110Z,77.97
2019-04-02T04:19:31.917Z,77.96
2019-04-02T04:21:57.741Z,77.84
2019-04-02T04:24:24.609Z,77.80
2019-04-02T04:26:51.540Z,78.28
2019-04-02T04:29:17.332Z,78.42
2019-04-02T04:31:43.144Z,78.30
2019-04-02T04:34:10.663Z,78.45
2019-04-02T04:36:36.830Z,78.95
2019-04-02T04:39:04.670Z,77.69
2019-04-02T04:41:30.748Z,78.64
2019-04-02T04:43:56.824Z,79.23
2019-04-02T04:46:22.630Z,79.81
2019-04-02T04:48:48.699Z,80.21
2019-04-02T04:51:14.795Z,80.17
2019-04-02T04:53:40.644Z,79.92
2019-04-02T04:56:09.784Z,79.41
2019-04-02T04:58:35.578Z,80.00
2019-04-02T05:01:04.943Z,79.91
2019-04-02T05:04:08.250Z,79.63
2019-04-02T05:06:34.090Z,79.29
2019-04-02T05:08:59.867Z,79.25
2019-04-02T05:11:25.652Z,79.53
2019-04-02T05:13:51.719Z,80.53
2019-04-02T05:16:17.547Z,79.72
2019-04-02T05:18:45.564Z,78.90
2019-04-02T05:21:11.090Z,78.86
2019-04-02T05:23:36.900Z,79.04
2019-04-02T05:26:02.725Z,79.10
2019-04-02T05:28:28.521Z,79.31
2019-04-02T05:30:54.351Z,79.32
2019-04-02T05:33:20.448Z,79.02
2019-04-02T05:35:46.486Z,79.72
2019-04-02T05:38:12.329Z,79.65
2019-04-02T05:40:38.372Z,79.83
2019-04-02T05:43:04.185Z,79.36
2019-04-02T05:45:30.005Z,78.66
2019-04-02T05:47:55.788Z,78.02
2019-04-02T05:50:21.623Z,77.92
2019-04-02T05:52:47.700Z,78.03
2019-04-02T05:55:13.494Z,78.28
2019-04-02T05:57:39.395Z,78.35
2019-04-02T06:00:05.905Z,77.87
2019-04-02T06:02:31.720Z,78.09
2019-04-02T06:04:57.512Z,78.37
2019-04-02T06:07:23.334Z,77.98
2019-04-02T06:09:49.143Z,77.96
2019-04-02T06:12:14.942Z,78.04
2019-04-02T06:14:40.795Z,77.36
2019-04-02T06:17:06.625Z,76.93
2019-04-02T06:19:32.412Z,76.35
2019-04-02T06:21:58.506Z,76.34
2019-04-02T06:24:24.323Z,75.44
2019-04-02T06:26:50.150Z,75.61
2019-04-02T06:29:18.697Z,75.54
2019-04-02T06:31:44.541Z,74.98
2019-04-02T06:34:10.324Z,75.25
2019-04-02T06:36:37.010Z,75.21
2019-04-02T06:39:10.865Z,75.03
2019-04-02T06:41:37.045Z,74.72
2019-04-02T06:44:04.531Z,75.17
2019-04-02T06:46:30.717Z,74.59
2019-04-02T06:49:08.080Z,74.26
2019-04-02T06:51:34.187Z,73.90
2019-04-02T06:54:00.029Z,73.19
2019-04-02T06:56:26.362Z,72.14
2019-04-02T06:58:52.835Z,71.67
2019-04-02T07:01:31.699Z,70.84
2019-04-02T07:03:46.616Z,69.51
2019-04-02T07:06:12.406Z,69.54
2019-04-02T07:08:47.063Z,68.86
2019-04-02T07:11:06.192Z,68.75
2019-04-02T07:13:32.057Z,67.67
2019-04-02T07:15:58.236Z,66.63
2019-04-02T07:18:24.823Z,64.84
2019-04-02T07:20:50.917Z,64.09
2019-04-02T07:23:16.744Z,62.78
2019-04-02T07:25:43.220Z,62.62
2019-04-02T07:28:09.088Z,62.26
2019-04-02T07:30:35.391Z,62.13
2019-04-02T07:33:01.362Z,61.15
2019-04-02T07:35:27.177Z,59.98
2019-04-02T07:37:55.940Z,59.23
2019-04-02T07:40:21.724Z,58.75
2019-04-02T07:42:50.314Z,59.28
2019-04-02T07:45:16.220Z,58.14
2019-04-02T07:47:42.320Z,57.35
2019-04-02T07:50:09.665Z,57.05
2019-04-02T07:52:35.723Z,57.43
2019-04-02T07:55:01.899Z,56.62
2019-04-02T07:57:27.697Z,55.44
2019-04-02T07:59:56.790Z,53.74
2019-04-02T08:02:22.687Z,52.45
2019-04-02T08:04:51.534Z,51.62
2019-04-02T08:07:17.542Z,51.67
2019-04-02T08:09:46.379Z,50.45
2019-04-02T08:12:12.233Z,48.52
2019-04-02T08:14:40.825Z,48.95
2019-04-02T08:17:06.905Z,48.50
2019-04-02T08:19:35.946Z,47.64
2019-04-02T08:22:01.762Z,48.20
2019-04-02T08:24:27.970Z,48.79
2019-04-02T08:26:53.782Z,48.85
2019-04-02T08:29:19.981Z,49.35
2019-04-02T08:31:49.264Z,50.04
2019-04-02T08:34:15.064Z,50.80
2019-04-02T08:36:40.878Z,51.40
2019-04-02T08:39:07.278Z,51.92
2019-04-02T08:41:35.822Z,51.57
2019-04-02T08:44:01.949Z,53.08
2019-04-02T08:46:30.738Z,52.56
2019-04-02T08:48:56.799Z,52.49
2019-04-02T08:51:25.612Z,53.33
2019-04-02T08:53:51.412Z,52.90
2019-04-02T08:56:20.154Z,52.75
2019-04-02T08:58:51.648Z,52.71
2019-04-02T09:01:14.053Z,52.16
2019-04-02T09:03:39.882Z,51.90
2019-04-02T09:06:06.058Z,51.19
2019-04-02T09:08:31.855Z,50.32
2019-04-02T09:10:57.668Z,49.95
2019-04-02T09:13:28.831Z,50.40
2019-04-02T09:15:54.443Z,50.39
2019-04-02T09:18:21.288Z,50.60
2019-04-02T09:20:47.385Z,49.80
2019-04-02T09:23:18.104Z,50.00
2019-04-02T09:25:44.894Z,50.08
2019-04-02T09:28:10.694Z,49.54
2019-04-02T09:30:36.504Z,49.84
2019-04-02T09:33:05.304Z,50.59
2019-04-02T09:35:31.400Z,49.09
2019-04-02T09:37:57.206Z,48.55
2019-04-02T09:40:23.005Z,46.59
2019-04-02T09:42:48.813Z,46.20
2019-04-02T09:45:19.055Z,45.39
2019-04-02T09:47:45.149Z,45.36
2019-04-02T09:50:14.565Z,44.71
2019-04-02T09:52:40.474Z,44.71
2019-04-02T09:55:09.354Z,41.62
2019-04-02T09:57:35.431Z,42.37
2019-04-02T10:00:03.940Z,42.37
2019-04-02T10:02:30.596Z,43.09
2019-04-02T10:04:56.407Z,43.60
2019-04-02T10:07:22.758Z,43.09
2019-04-02T10:09:53.353Z,44.97
2019-04-02T10:12:19.906Z,44.97
2019-04-02T10:14:45.742Z,44.68
2019-04-02T10:17:11.586Z,44.68
2019-04-02T10:19:37.385Z,45.27
2019-04-02T10:22:06.368Z,42.66
2019-04-02T10:24:31.105Z,41.97
2019-04-02T10:27:00.015Z,41.31
2019-04-02T10:29:27.020Z,40.72
2019-04-02T10:31:53.295Z,38.89
2019-04-02T10:34:19.153Z,37.54
2019-04-02T10:36:56.210Z,37.46
2019-04-02T10:39:16.656Z,37.27
2019-04-02T10:41:42.568Z,38.04
2019-04-02T10:44:08.768Z,37.50
2019-04-02T10:46:38.325Z,37.50
2019-04-02T10:49:04.513Z,37.86
2019-04-02T10:51:30.313Z,38.42
2019-04-02T10:53:56.113Z,38.14
2019-04-02T10:56:22.180Z,35.14
2019-04-02T10:58:48.080Z,35.13
2019-04-02T11:01:14.451Z,34.80
2019-04-02T11:03:43.594Z,34.29
2019-04-02T11:06:09.406Z,34.33
2019-04-02T11:08:39.420Z,33.86
2019-04-02T11:11:05.344Z,33.67
2019-04-02T11:13:34.044Z,33.81
2019-04-02T11:15:59.820Z,33.00
2019-04-02T11:18:27.084Z,32.19
2019-04-02T11:20:52.905Z,31.90
2019-04-02T11:23:22.939Z,31.59
2019-04-02T11:25:49.521Z,30.32
2019-04-02T11:28:16.122Z,30.55
2019-04-02T11:30:41.935Z,30.88
2019-04-02T11:33:07.743Z,30.31
2019-04-02T11:35:33.668Z,30.57
2019-04-02T11:37:59.469Z,30.47
2019-04-02T11:40:28.146Z,29.71
2019-04-02T11:42:54.247Z,30.25
2019-04-02T11:45:22.978Z,29.86
2019-04-02T11:47:48.795Z,29.50
2019-04-02T11:50:17.250Z,29.51
2019-04-02T11:52:43.049Z,29.84
2019-04-02T11:55:12.323Z,29.43
2019-04-02T11:57:38.321Z,29.32
2019-04-02T12:00:08.703Z,29.27
2019-04-02T12:02:34.651Z,30.28
2019-04-02T12:05:00.454Z,29.87
2019-04-02T12:07:26.262Z,29.59
2019-04-02T12:09:52.093Z,30.07
2019-04-02T12:12:20.630Z,29.85
2019-04-02T12:14:46.739Z,28.91
2019-04-02T12:17:15.587Z,28.59
2019-04-02T12:19:42.812Z,27.71
2019-04-02T12:22:08.800Z,27.16
2019-04-02T12:24:34.609Z,27.87
2019-04-02T12:27:03.013Z,27.57
2019-04-02T12:29:29.099Z,27.75
2019-04-02T12:31:57.953Z,28.35
2019-04-02T12:34:23.732Z,27.94
2019-04-02T12:36:54.292Z,27.96
2019-04-02T12:39:20.123Z,27.34
2019-04-02T12:41:45.906Z,27.45
2019-04-02T12:44:11.828Z,27.65
2019-04-02T12:46:37.632Z,27.34
2019-04-02T12:49:07.746Z,27.42
2019-04-02T12:51:33.955Z,27.50
2019-04-02T12:54:00.895Z,27.90
2019-04-02T12:56:27.008Z,27.72
2019-04-02T12:58:55.600Z,27.80
2019-04-02T13:01:21.673Z,28.15
2019-04-02T13:03:50.504Z,27.61
2019-04-02T13:06:16.313Z,27.99
2019-04-02T13:08:44.910Z,27.94
2019-04-02T13:11:10.701Z,28.35
2019-04-02T13:13:39.302Z,27.97
2019-04-02T13:16:05.098Z,28.24
2019-04-02T13:18:31.633Z,28.75
2019-04-02T13:20:57.866Z,28.64
2019-04-02T13:23:23.959Z,28.66
2019-04-02T13:25:49.781Z,28.18
2019-04-02T13:28:15.586Z,28.59
2019-04-02T13:30:44.180Z,28.74
2019-04-02T13:33:09.975Z,29.07
2019-04-02T13:35:39.067Z,29.11
2019-04-02T13:38:04.958Z,28.50
2019-04-02T13:40:34.108Z,28.17
2019-04-02T13:42:59.910Z,28.85
2019-04-02T13:45:28.728Z,27.93
2019-04-02T13:47:54.579Z,28.05
2019-04-02T13:50:23.384Z,28.31
2019-04-02T13:52:49.161Z,27.67
2019-04-02T13:55:14.978Z,28.01
2019-04-02T13:57:41.056Z,27.77
2019-04-02T14:00:33.187Z,27.94
2019-04-02T14:02:59.029Z,28.16
2019-04-02T14:05:25.113Z,28.31
2019-04-02T14:07:51.209Z,27.75
2019-04-02T14:10:17.222Z,27.31
2019-04-02T14:12:43.033Z,28.43
2019-04-02T14:15:09.164Z,27.40
2019-04-02T14:17:34.943Z,27.87
2019-04-02T14:20:01.110Z,27.94
2019-04-02T14:22:26.930Z,28.46
2019-04-02T14:24:52.789Z,27.77
2019-04-02T14:27:18.592Z,27.47
2019-04-02T14:29:45.728Z,27.76
2019-04-02T14:32:11.995Z,27.72
2019-04-02T14:34:37.833Z,27.66
2019-04-02T14:37:03.651Z,27.14
2019-04-02T14:39:29.469Z,27.58
2019-04-02T14:41:55.305Z,27.76
2019-04-02T14:44:21.123Z,27.58
2019-04-02T14:46:47.158Z,27.55
2019-04-02T14:49:12.967Z,26.79
2019-04-02T14:51:39.494Z,27.24
2019-04-02T14:54:06.499Z,27.27
2019-04-02T14:56:32.706Z,27.51
2019-04-02T14:58:58.539Z,27.63
2019-04-02T15:01:26.469Z,27.06
2019-04-02T15:03:55.074Z,27.47
2019-04-02T15:06:21.189Z,27.82
2019-04-02T15:08:46.966Z,27.97
2019-04-02T15:11:12.769Z,27.22
2019-04-02T15:13:38.595Z,27.78
2019-04-02T15:16:07.152Z,27.66
2019-04-02T15:18:33.257Z,28.09
2019-04-02T15:21:00.409Z,27.51
2019-04-02T15:23:26.412Z,27.32
2019-04-02T15:25:55.527Z,27.64
2019-04-02T15:28:21.608Z,28.92
2019-04-02T15:30:50.624Z,29.08
2019-04-02T15:33:16.401Z,29.90
2019-04-02T15:35:45.195Z,30.03
2019-04-02T15:38:13.498Z,30.73
2019-04-02T15:40:39.266Z,31.24
2019-04-02T15:43:05.069Z,31.30
2019-04-02T15:45:30.986Z,31.31
2019-04-02T15:47:57.316Z,30.78
2019-04-02T15:50:23.183Z,30.91
2019-04-02T15:52:52.113Z,31.00
2019-04-02T15:55:17.900Z,31.11
2019-04-02T15:57:46.807Z,30.31
2019-04-02T16:00:25.876Z,30.23
2019-04-02T16:02:42.948Z,30.93
2019-04-02T16:05:10.079Z,30.74
2019-04-02T16:07:35.866Z,30.62
2019-04-02T16:10:07.192Z,30.66
2019-04-02T16:12:33.027Z,30.83
2019-04-02T16:14:58.844Z,30.29
2019-04-02T16:17:24.669Z,30.42
2019-04-02T16:19:50.439Z,31.20
2019-04-02T16:22:18.100Z,31.55
2019-04-02T16:24:44.249Z,31.55
2019-04-02T16:27:10.525Z,31.67
2019-04-02T16:29:36.989Z,30.93
2019-04-02T16:32:03.026Z,31.58
2019-04-02T16:34:38.307Z,32.48
2019-04-02T16:36:59.592Z,32.05
2019-04-02T16:39:25.449Z,32.05
2019-04-02T16:41:51.849Z,32.34
2019-04-02T16:44:21.024Z,31.52
2019-04-02T16:46:46.849Z,31.03
2019-04-02T16:49:15.679Z,31.61
2019-04-02T16:51:41.490Z,30.89
2019-04-02T16:54:10.126Z,30.93
2019-04-02T16:56:35.950Z,31.03
2019-04-02T16:59:01.746Z,31.25
2019-04-02T17:01:27.574Z,31.86
2019-04-02T17:03:53.374Z,33.55
2019-04-02T17:06:22.692Z,34.77
2019-04-02T17:08:48.773Z,34.48
2019-04-02T17:11:15.898Z,34.48
2019-04-02T17:13:41.996Z,37.57
2019-04-02T17:16:11.076Z,37.57
2019-04-02T17:18:37.865Z,37.02
2019-04-02T17:21:08.020Z,36.95
2019-04-02T17:23:34.113Z,36.95
2019-04-02T17:26:00.007Z,36.96
2019-04-02T17:28:32.212Z,38.17
2019-04-02T17:30:56.629Z,37.01
2019-04-02T17:33:22.471Z,36.62
2019-04-02T17:35:48.266Z,36.83
2019-04-02T17:38:14.451Z,36.00
2019-04-02T17:40:40.337Z,35.96
2019-04-02T17:43:06.581Z,35.87
2019-04-02T17:45:32.389Z,36.40
2019-04-02T17:48:01.730Z,36.02
2019-04-02T17:50:27.550Z,36.18
2019-04-02T17:52:56.351Z,36.26
2019-04-02T17:55:22.172Z,36.99
2019-04-02T17:57:52.734Z,36.80
2019-04-02T18:00:19.473Z,37.05
2019-04-02T18:02:47.276Z,37.56
2019-04-02T18:05:13.425Z,37.77
2019-04-02T18:07:42.232Z,38.12
2019-04-02T18:10:08.888Z,38.39
2019-04-02T18:12:34.995Z,38.83
2019-04-02T18:15:00.939Z,39.22
2019-04-02T18:17:26.744Z,39.52
2019-04-02T18:19:52.822Z,39.77
2019-04-02T18:22:18.629Z,39.98
2019-04-02T18:24:47.504Z,39.97
2019-04-02T18:27:13.807Z,40.16
2019-04-02T18:29:43.862Z,40.35
2019-04-02T18:32:09.949Z,40.31
2019-04-02T18:34:36.068Z,40.54
2019-04-02T18:37:02.210Z,40.38
2019-04-02T18:39:34.638Z,40.63
2019-04-02T18:42:00.403Z,40.99
2019-04-02T18:44:26.241Z,41.02
2019-04-02T18:46:52.254Z,41.36
2019-04-02T18:49:20.888Z,41.37
2019-04-02T18:51:46.123Z,41.74
2019-04-02T18:54:11.983Z,42.02
2019-04-02T18:56:37.813Z,41.45
2019-04-02T18:59:03.627Z,41.45
2019-04-02T19:01:32.785Z,41.83
2019-04-02T19:04:00.125Z,41.67
2019-04-02T19:06:26.364Z,41.80
2019-04-02T19:08:52.407Z,41.62
2019-04-02T19:11:22.754Z,41.88
2019-04-02T19:13:49.230Z,42.13
2019-04-02T19:16:17.846Z,42.42
2019-04-02T19:18:43.675Z,42.66
2019-04-02T19:21:12.466Z,43.22
2019-04-02T19:23:38.498Z,43.53
2019-04-02T19:26:04.292Z,43.53
2019-04-02T19:28:30.135Z,43.36
2019-04-02T19:30:55.952Z,43.39
2019-04-02T19:33:24.543Z,44.12
2019-04-02T19:35:50.643Z,44.59
2019-04-02T19:38:19.466Z,45.76
2019-04-02T19:40:45.335Z,44.83
2019-04-02T19:43:13.938Z,45.23
2019-04-02T19:45:39.773Z,44.78
2019-04-02T19:48:08.399Z,44.22
2019-04-02T19:50:34.199Z,44.45
2019-04-02T19:53:01.866Z,45.20
2019-04-02T19:55:27.730Z,46.60
2019-04-02T19:57:56.607Z,47.20
2019-04-02T20:00:22.901Z,47.44
2019-04-02T20:02:48.738Z,47.68
2019-04-02T20:05:14.652Z,47.30
2019-04-02T20:07:43.188Z,47.44
2019-04-02T20:10:08.733Z,47.25
2019-04-02T20:12:35.722Z,47.54
2019-04-02T20:15:06.717Z,47.75
2019-04-02T20:17:32.761Z,45.88
2019-04-02T20:19:58.583Z,45.29
2019-04-02T20:22:24.389Z,44.66
2019-04-02T20:24:53.237Z,44.42
2019-04-02T20:27:19.034Z,44.21
2019-04-02T20:29:49.437Z,42.88
2019-04-02T20:32:15.412Z,43.64
2019-04-02T20:34:41.331Z,43.53
2019-04-02T20:37:07.230Z,42.63
2019-04-02T20:39:33.029Z,41.94
2019-04-02T20:41:59.365Z,42.29
2019-04-02T20:44:25.251Z,41.54
2019-04-02T20:46:53.948Z,41.35
2019-04-02T20:49:19.764Z,41.90
2019-04-02T20:51:48.039Z,42.13
2019-04-02T20:54:13.883Z,42.33
2019-04-02T20:56:44.390Z,42.26
2019-04-02T20:59:10.433Z,42.55
2019-04-02T21:01:37.831Z,42.48
2019-04-02T21:04:04.003Z,42.73
2019-04-02T21:06:32.851Z,42.85
2019-04-02T21:08:58.659Z,43.32
2019-04-02T21:11:27.107Z,43.61
2019-04-02T21:13:52.924Z,43.88
2019-04-02T21:16:18.725Z,44.42
2019-04-02T21:18:45.216Z,44.87
2019-04-02T21:21:11.549Z,45.71
2019-04-02T21:23:38.967Z,46.37
2019-04-02T21:26:04.746Z,46.85
2019-04-02T21:28:35.173Z,47.18
2019-04-02T21:31:00.952Z,47.59
2019-04-02T21:33:34.196Z,47.09
2019-04-02T21:35:56.007Z,47.12
2019-04-02T21:38:24.834Z,47.49
2019-04-02T21:40:50.704Z,47.53
2019-04-02T21:43:19.319Z,47.79
2019-04-02T21:45:45.446Z,48.02
2019-04-02T21:48:14.520Z,47.89
2019-04-02T21:50:40.318Z,47.48
2019-04-02T21:53:06.730Z,47.38
2019-04-02T21:55:34.120Z,47.17
2019-04-02T21:58:00.080Z,47.26
2019-04-02T22:00:33.932Z,47.33
2019-04-02T22:02:59.730Z,47.51
2019-04-02T22:05:25.511Z,47.57
2019-04-02T22:07:51.317Z,47.66
2019-04-02T22:10:17.138Z,47.88
2019-04-02T22:12:43.312Z,48.15
2019-04-02T22:15:12.267Z,46.65
2019-04-02T22:17:38.559Z,48.10
2019-04-02T22:20:04.786Z,48.86
2019-04-02T22:22:31.587Z,48.46
2019-04-02T22:24:57.498Z,48.73
2019-04-02T22:27:23.329Z,48.10
2019-04-02T22:29:49.145Z,47.99
2019-04-02T22:32:15.603Z,47.83
2019-04-02T22:34:49.008Z,48.02
2019-04-02T22:37:10.129Z,47.85
2019-04-02T22:39:35.932Z,48.18
2019-04-02T22:42:04.837Z,47.05
2019-04-02T22:44:30.684Z,47.58
2019-04-02T22:46:59.614Z,49.45
2019-04-02T22:49:25.900Z,51.43
2019-04-02T22:51:56.411Z,52.28
2019-04-02T22:54:22.478Z,52.55
2019-04-02T22:56:48.404Z,52.63
2019-04-02T22:59:14.538Z,52.28
2019-04-02T23:01:43.100Z,52.59
2019-04-02T23:04:09.195Z,51.92
2019-04-02T23:06:35.006Z,52.22
2019-04-02T23:09:01.585Z,52.43
2019-04-02T23:11:28.528Z,52.52
2019-04-02T23:13:54.643Z,52.20
2019-04-02T23:16:25.665Z,52.17
2019-04-02T23:18:51.204Z,52.01
2019-04-02T23:21:17.017Z,52.11
2019-04-02T23:23:45.067Z,52.09
2019-04-02T23:26:11.911Z,52.00
2019-04-02T23:28:39.350Z,51.88
2019-04-02T23:31:05.155Z,51.71
2019-04-02T23:33:33.517Z,51.68
2019-04-02T23:35:59.325Z,51.73
2019-04-02T23:38:28.227Z,51.81
2019-04-02T23:44:35.588Z,52.55
2019-04-02T23:47:03.347Z,52.73
2019-04-02T23:49:31.582Z,52.41
2019-04-02T23:51:58.955Z,52.17
2019-04-02T23:54:25.572Z,52.17
2019-04-02T23:56:52.175Z,52.42
2019-04-02T23:59:18.743Z,52.72
